TimeCDT,TemperatureF,Dew PointF,Humidity,Sea Level PressureIn,VisibilityMPH,Wind Direction,Wind SpeedMPH,Gust SpeedMPH,PrecipitationIn,Events,Conditions,WindDirDegrees,DateUTC
12:52 AM,37.9,28.0,68,29.93,10.0,North,9.2,-,N/A,,Clear,350,2012-11-02 05:52:00
1:52 AM,37.9,28.9,70,29.94,10.0,NNW,8.1,-,N/A,,Clear,340,2012-11-02 06:52:00
2:52 AM,36.0,28.9,76,29.96,10.0,NNW,5.8,-,N/A,,Clear,330,2012-11-02 07:52:00
3:52 AM,33.1,28.0,82,29.98,10.0,North,8.1,-,N/A,,Clear,350,2012-11-02 08:52:00
4:52 AM,33.1,28.9,85,30.00,10.0,NNW,6.9,-,N/A,,Clear,330,2012-11-02 09:52:00
5:52 AM,30.9,28.0,89,30.02,10.0,NW,6.9,-,N/A,,Clear,320,2012-11-02 10:52:00
6:52 AM,28.9,26.1,89,30.04,10.0,NW,5.8,-,N/A,,Clear,310,2012-11-02 11:52:00
7:52 AM,30.9,27.0,85,30.06,10.0,NNW,5.8,-,N/A,,Clear,330,2012-11-02 12:52:00
8:52 AM,35.1,28.9,78,30.08,10.0,North,9.2,-,N/A,,Clear,360,2012-11-02 13:52:00
9:52 AM,39.0,28.0,65,30.09,10.0,North,12.7,-,N/A,,Clear,10,2012-11-02 14:52:00
10:52 AM,42.1,28.0,58,30.09,10.0,North,10.4,-,N/A,,Clear,360,2012-11-02 15:52:00
11:52 AM,44.1,26.1,49,30.10,10.0,NNE,6.9,-,N/A,,Clear,20,2012-11-02 16:52:00
12:52 PM,46.0,26.1,46,30.09,10.0,Variable,5.8,-,N/A,,Clear,0,2012-11-02 17:52:00
1:52 PM,48.0,26.1,42,30.08,10.0,NNE,5.8,-,N/A,,Clear,20,2012-11-02 18:52:00
2:52 PM,48.0,25.0,41,30.08,10.0,North,6.9,-,N/A,,Clear,10,2012-11-02 19:52:00
3:52 PM,46.9,26.1,44,30.09,10.0,North,8.1,-,N/A,,Clear,360,2012-11-02 20:52:00
4:52 PM,44.1,27.0,51,30.10,10.0,North,4.6,-,N/A,,Clear,360,2012-11-02 21:52:00
5:52 PM,36.0,26.1,67,30.10,9.0,NNE,5.8,-,N/A,,Clear,20,2012-11-02 22:52:00
6:52 PM,39.9,30.9,70,30.12,10.0,ENE,6.9,-,N/A,,Clear,70,2012-11-02 23:52:00
7:52 PM,39.0,30.9,73,30.12,10.0,ENE,8.1,-,N/A,,Clear,70,2012-11-03 00:52:00
8:52 PM,37.9,30.9,76,30.13,10.0,ENE,6.9,-,N/A,,Clear,60,2012-11-03 01:52:00
9:52 PM,35.1,30.0,82,30.15,10.0,North,4.6,-,N/A,,Clear,360,2012-11-03 02:52:00
10:52 PM,35.1,30.0,82,30.16,10.0,NNE,3.5,-,N/A,,Clear,20,2012-11-03 03:52:00